« Back
NWS Peachtree City, Ga » Text Product » ATL Terminal Aerodrome Forecast


Printer-friendly Version
Current Version              Previous Versions:   1  2  3  4  5  6  7  8  9  

Terminal Aerodrome Forecast

792
FTUS42 KFFC 310959 AAB
TAFATL
TAF AMD
KATL 310959Z 3110/0112 32007KT P6SM SKC
     FM311200 01007KT P6SM FEW250
     FM311500 04008KT P6SM FEW030
     FM312100 35007KT P6SM SCT050
     FM010000 34006KT P6SM SCT080
     FM011000 01005KT P6SM FEW250=



USA.gov is the U.S. government's official web portal to all federal, state and local government web resources and services.